createdAt,value
2022-10-08T00:04:58.030Z,11.31
2022-10-08T00:10:00.650Z,11.34
2022-10-08T00:15:04.304Z,11.35
2022-10-08T00:20:07.664Z,11.35
2022-10-08T00:25:10.508Z,11.39
2022-10-08T00:30:13.815Z,11.46
2022-10-08T00:35:16.539Z,11.53
2022-10-08T00:40:19.170Z,11.58
2022-10-08T00:45:21.926Z,11.61
2022-10-08T00:50:34.491Z,11.65
2022-10-08T00:55:43.795Z,11.73
2022-10-08T01:00:48.365Z,11.84
2022-10-08T01:06:19.303Z,11.92
2022-10-08T01:11:38.760Z,11.99
2022-10-08T01:16:45.881Z,12.02
2022-10-08T01:21:57.662Z,12.07
2022-10-08T01:27:06.910Z,12.15
2022-10-08T01:32:24.140Z,12.23
2022-10-08T01:37:33.099Z,12.25
2022-10-08T01:42:40.106Z,12.25
2022-10-08T01:47:45.961Z,12.26
2022-10-08T01:52:54.892Z,12.30
2022-10-08T01:58:04.213Z,12.34
2022-10-08T02:03:07.041Z,12.35
2022-10-08T02:08:11.010Z,12.32
2022-10-08T02:13:15.100Z,12.33
2022-10-08T02:18:28.684Z,12.34
2022-10-08T02:23:34.810Z,12.37
2022-10-08T02:29:04.327Z,12.37
2022-10-08T02:34:16.591Z,12.38
2022-10-08T02:39:21.416Z,12.41
2022-10-08T02:44:34.616Z,12.46
2022-10-08T02:49:45.293Z,12.53
2022-10-08T02:54:51.536Z,12.59
2022-10-08T02:59:54.343Z,12.61
2022-10-08T03:05:02.302Z,12.65
2022-10-08T03:10:07.775Z,12.69
2022-10-08T03:15:11.741Z,12.75
2022-10-08T03:20:15.024Z,12.76
2022-10-08T03:25:17.623Z,12.77
2022-10-08T03:30:20.410Z,12.81
2022-10-08T03:35:23.077Z,12.86
2022-10-08T03:40:25.711Z,12.88
2022-10-08T03:45:28.391Z,12.86
2022-10-08T03:50:30.997Z,12.85
2022-10-08T03:55:35.734Z,12.85
2022-10-08T04:00:38.432Z,12.92
2022-10-08T04:05:49.002Z,12.98
2022-10-08T04:10:52.021Z,13.00
2022-10-08T04:16:01.322Z,13.02
2022-10-08T04:21:07.075Z,13.06
2022-10-08T04:26:11.479Z,13.10
2022-10-08T04:31:19.763Z,13.14
2022-10-08T04:36:24.755Z,13.14
2022-10-08T04:41:27.543Z,13.14
2022-10-08T04:46:30.313Z,13.13
2022-10-08T04:51:33.051Z,13.13
2022-10-08T04:56:36.588Z,13.14
2022-10-08T05:01:39.278Z,13.10
2022-10-08T05:06:41.965Z,13.04
2022-10-08T05:11:44.885Z,13.03
2022-10-08T05:16:48.803Z,13.02
2022-10-08T05:21:51.513Z,13.03
2022-10-08T05:26:58.643Z,13.02
2022-10-08T05:32:02.474Z,12.99
2022-10-08T05:37:05.137Z,12.98
2022-10-08T05:42:07.834Z,13.03
2022-10-08T05:47:10.433Z,13.09
2022-10-08T05:52:13.032Z,13.13
2022-10-08T05:57:15.726Z,13.15
2022-10-08T06:02:18.327Z,13.16
2022-10-08T06:07:20.961Z,13.16
2022-10-08T06:12:23.619Z,13.19
2022-10-08T06:17:26.313Z,13.23
2022-10-08T06:22:29.012Z,13.32
2022-10-08T06:27:31.712Z,13.43
2022-10-08T06:32:34.323Z,13.53
2022-10-08T06:37:36.996Z,13.62
2022-10-08T06:42:39.689Z,13.65
2022-10-08T06:47:42.404Z,13.65
2022-10-08T06:52:46.067Z,13.69
2022-10-08T06:57:49.125Z,13.76
2022-10-08T07:02:52.445Z,13.83
2022-10-08T07:07:55.055Z,13.97
2022-10-08T07:12:58.250Z,14.13
2022-10-08T07:18:00.958Z,14.28
2022-10-08T07:23:03.854Z,14.40
2022-10-08T07:28:06.997Z,14.59
2022-10-08T07:33:09.758Z,14.80
2022-10-08T07:38:12.555Z,15.09
2022-10-08T07:43:19.529Z,15.38
2022-10-08T07:48:23.285Z,15.61
2022-10-08T07:53:25.933Z,15.81
2022-10-08T07:58:28.575Z,15.95
2022-10-08T08:03:31.247Z,16.08
2022-10-08T08:08:36.540Z,16.25
2022-10-08T08:13:40.120Z,16.40
2022-10-08T08:18:45.433Z,16.63
2022-10-08T08:23:50.755Z,16.88
2022-10-08T08:28:55.419Z,17.03
2022-10-08T08:34:01.300Z,16.97
2022-10-08T08:39:04.946Z,16.98
2022-10-08T08:44:18.837Z,17.13
2022-10-08T08:49:29.325Z,17.39
2022-10-08T08:54:32.362Z,17.58
2022-10-08T08:59:41.703Z,17.79
2022-10-08T09:04:51.158Z,17.79
2022-10-08T09:09:58.268Z,17.95
2022-10-08T09:15:02.919Z,18.15
2022-10-08T09:20:06.592Z,18.30
2022-10-08T09:25:17.005Z,18.54
2022-10-08T09:30:36.812Z,18.78
2022-10-08T09:35:44.538Z,18.71
2022-10-08T09:41:02.310Z,18.60
2022-10-08T09:46:27.279Z,18.54
2022-10-08T09:51:30.030Z,18.56
2022-10-08T09:56:33.945Z,18.64
2022-10-08T10:01:45.408Z,18.81
2022-10-08T10:06:54.806Z,19.04
2022-10-08T10:12:11.832Z,19.28
2022-10-08T10:17:25.586Z,19.44
2022-10-08T10:22:36.871Z,19.57
2022-10-08T10:27:46.026Z,19.56
2022-10-08T10:33:05.314Z,19.49
2022-10-08T10:38:32.288Z,19.46
2022-10-08T10:43:45.642Z,20.20
2022-10-08T10:48:49.546Z,22.11
2022-10-08T10:54:03.967Z,23.21
2022-10-08T10:59:39.146Z,23.59
2022-10-08T11:04:52.138Z,22.97
2022-10-08T11:10:03.244Z,22.81
2022-10-08T11:15:21.091Z,23.66
2022-10-08T11:20:38.214Z,23.67
2022-10-08T11:26:13.949Z,22.29
2022-10-08T11:31:40.097Z,21.10
2022-10-08T11:36:55.862Z,20.38
2022-10-08T11:42:21.798Z,20.03
2022-10-08T11:47:35.976Z,19.88
2022-10-08T11:52:38.622Z,19.66
2022-10-08T11:58:06.702Z,19.42
2022-10-08T12:03:34.077Z,19.26
2022-10-08T12:08:57.819Z,19.16
2022-10-08T12:14:13.127Z,19.21
2022-10-08T12:19:35.403Z,19.54
2022-10-08T12:24:38.726Z,19.62
2022-10-08T12:29:55.576Z,19.73
2022-10-08T12:34:59.381Z,19.74
2022-10-08T12:40:24.572Z,19.75
2022-10-08T12:45:34.332Z,19.81
2022-10-08T12:51:00.499Z,19.86
2022-10-08T12:56:04.498Z,19.63
2022-10-08T13:01:07.438Z,19.40
2022-10-08T13:06:18.286Z,19.26
2022-10-08T13:11:21.006Z,19.14
2022-10-08T13:16:26.782Z,19.00
2022-10-08T13:21:32.549Z,18.85
2022-10-08T13:26:48.348Z,18.70
2022-10-08T13:32:11.616Z,18.58
2022-10-08T13:37:23.243Z,18.49
2022-10-08T13:42:36.278Z,18.36
2022-10-08T13:47:38.983Z,18.27
2022-10-08T13:52:45.356Z,18.20
2022-10-08T13:57:48.201Z,18.15
2022-10-08T14:02:51.850Z,18.12
2022-10-08T14:08:00.734Z,18.02
2022-10-08T14:13:03.534Z,17.93
2022-10-08T14:18:07.154Z,17.85
2022-10-08T14:23:14.172Z,17.75
2022-10-08T14:28:16.884Z,17.61
2022-10-08T14:33:19.643Z,17.51
2022-10-08T14:38:22.420Z,17.41
2022-10-08T14:43:27.639Z,17.27
2022-10-08T14:48:30.616Z,17.17
2022-10-08T14:53:33.301Z,17.09
2022-10-08T14:58:36.239Z,17.05
2022-10-08T15:03:38.941Z,16.99
2022-10-08T15:08:41.921Z,16.94
2022-10-08T15:13:44.622Z,16.85
2022-10-08T15:18:47.911Z,16.74
2022-10-08T15:23:50.745Z,16.63
2022-10-08T15:28:54.779Z,16.51
2022-10-08T15:33:59.711Z,16.44
2022-10-08T15:39:02.304Z,16.36
2022-10-08T15:44:21.906Z,16.33
2022-10-08T15:49:36.018Z,16.31
2022-10-08T15:54:39.819Z,16.22
2022-10-08T15:59:42.889Z,16.10
2022-10-08T16:04:47.523Z,16.00
2022-10-08T16:09:50.202Z,15.93
2022-10-08T16:14:52.799Z,15.81
2022-10-08T16:19:55.438Z,15.69
2022-10-08T16:24:58.095Z,15.60
2022-10-08T16:30:00.780Z,15.50
2022-10-08T16:35:03.608Z,15.47
2022-10-08T16:40:07.142Z,15.44
2022-10-08T16:45:10.276Z,15.38
2022-10-08T16:50:12.902Z,15.29
2022-10-08T16:55:15.660Z,15.18
2022-10-08T17:00:19.182Z,15.03
2022-10-08T17:05:21.825Z,14.92
2022-10-08T17:10:24.470Z,14.86
2022-10-08T17:15:27.170Z,14.82
2022-10-08T17:20:29.862Z,14.75
2022-10-08T17:25:32.675Z,14.67
2022-10-08T17:30:37.169Z,14.60
2022-10-08T17:35:39.913Z,14.52
2022-10-08T17:40:42.608Z,14.46
2022-10-08T17:45:45.534Z,14.43
2022-10-08T17:50:48.358Z,14.44
2022-10-08T17:56:00.882Z,14.44
2022-10-08T18:01:11.197Z,14.39
2022-10-08T18:06:14.642Z,14.31
2022-10-08T18:11:17.402Z,14.24
2022-10-08T18:16:21.156Z,14.18
2022-10-08T18:21:23.962Z,14.14
2022-10-08T18:26:30.644Z,14.11
2022-10-08T18:31:33.955Z,14.03
2022-10-08T18:36:37.979Z,13.94
2022-10-08T18:41:43.664Z,13.90
2022-10-08T18:46:47.444Z,13.89
2022-10-08T18:51:50.220Z,13.82
2022-10-08T18:56:53.097Z,13.74
2022-10-08T19:01:59.419Z,13.71
2022-10-08T19:07:02.718Z,13.65
2022-10-08T19:12:07.936Z,13.61
2022-10-08T19:17:10.562Z,13.60
2022-10-08T19:22:13.247Z,13.56
2022-10-08T19:27:15.986Z,13.48
2022-10-08T19:32:18.615Z,13.44
2022-10-08T19:37:21.264Z,13.39
2022-10-08T19:42:23.926Z,13.33
2022-10-08T19:47:26.560Z,13.30
2022-10-08T19:52:29.258Z,13.28
2022-10-08T19:57:32.028Z,13.28
2022-10-08T20:02:35.106Z,13.32
2022-10-08T20:07:38.548Z,13.40
2022-10-08T20:12:41.353Z,13.44
2022-10-08T20:17:44.161Z,13.48
2022-10-08T20:22:47.029Z,13.44
2022-10-08T20:27:50.883Z,13.37
2022-10-08T20:32:53.558Z,13.28
2022-10-08T20:37:56.585Z,13.15
2022-10-08T20:42:59.193Z,13.07
2022-10-08T20:48:01.832Z,13.05
2022-10-08T20:53:04.577Z,13.06
2022-10-08T20:58:07.199Z,13.07
2022-10-08T21:03:09.797Z,13.08
2022-10-08T21:08:12.562Z,13.05
2022-10-08T21:13:15.270Z,13.00
2022-10-08T21:18:17.941Z,12.98
2022-10-08T21:23:20.667Z,12.95
2022-10-08T21:28:23.362Z,12.95
2022-10-08T21:33:26.116Z,12.96
2022-10-08T21:38:28.865Z,12.96
2022-10-08T21:43:32.291Z,12.96
2022-10-08T21:48:35.101Z,12.94
2022-10-08T21:53:40.659Z,12.89
2022-10-08T21:58:45.717Z,12.81
2022-10-08T22:03:48.604Z,12.77
2022-10-08T22:08:51.631Z,12.81
2022-10-08T22:13:54.351Z,12.84
2022-10-08T22:18:58.077Z,12.82
2022-10-08T22:24:00.824Z,12.82
2022-10-08T22:29:04.638Z,12.82
2022-10-08T22:34:07.665Z,12.83
2022-10-08T22:39:10.769Z,12.78
2022-10-08T22:44:13.587Z,12.73
2022-10-08T22:49:16.279Z,12.75
2022-10-08T22:54:18.969Z,12.71
2022-10-08T22:59:21.670Z,12.64
2022-10-08T23:04:24.472Z,12.61
2022-10-08T23:09:27.110Z,12.62
2022-10-08T23:14:29.866Z,12.58
2022-10-08T23:19:32.497Z,12.49
2022-10-08T23:24:35.149Z,12.41
2022-10-08T23:29:37.860Z,12.31
2022-10-08T23:34:40.559Z,12.21
2022-10-08T23:39:43.162Z,12.06
2022-10-08T23:44:45.805Z,11.97
2022-10-08T23:49:48.462Z,11.87
2022-10-08T23:54:51.059Z,11.81
2022-10-08T23:59:53.681Z,11.78
